createdAt,value
2022-11-26T00:10:36.183Z,101025.33
2022-11-26T00:25:43.806Z,101037.37
2022-11-26T00:40:47.598Z,101042.30
2022-11-26T00:55:51.351Z,101041.71
2022-11-26T01:10:54.557Z,101052.60
2022-11-26T01:25:58.470Z,101059.05
2022-11-26T01:41:21.609Z,101066.49
2022-11-26T01:56:50.346Z,101071.41
2022-11-26T02:11:54.261Z,101072.58
2022-11-26T02:27:15.995Z,101073.02
2022-11-26T02:42:25.041Z,101078.95
2022-11-26T02:57:32.708Z,101086.16
2022-11-26T03:12:36.287Z,101097.02
2022-11-26T03:27:39.776Z,101116.00
2022-11-26T03:42:44.113Z,101119.17
2022-11-26T03:57:47.245Z,101131.28
2022-11-26T04:12:50.818Z,101136.84
2022-11-26T04:27:54.434Z,101145.60
2022-11-26T04:42:57.619Z,101145.95
2022-11-26T04:58:00.766Z,101156.59
2022-11-26T05:13:04.102Z,101171.79
2022-11-26T05:28:07.451Z,101190.54
2022-11-26T05:43:10.895Z,101214.52
2022-11-26T05:58:14.261Z,101222.75
2022-11-26T06:13:17.930Z,101239.00
2022-11-26T06:28:21.429Z,101253.35
2022-11-26T06:43:24.630Z,101268.12
2022-11-26T06:58:28.165Z,101285.09
2022-11-26T07:13:31.892Z,101298.94
2022-11-26T07:28:35.954Z,101311.75
2022-11-26T07:43:41.972Z,101331.99
2022-11-26T07:58:45.705Z,101338.09
2022-11-26T08:13:52.733Z,101349.09
2022-11-26T08:28:56.871Z,101365.79
2022-11-26T08:44:08.290Z,101373.55
2022-11-26T08:59:11.893Z,101378.48
2022-11-26T09:14:18.225Z,101400.39
2022-11-26T09:29:23.544Z,101413.95
2022-11-26T09:44:52.027Z,101417.61
2022-11-26T09:59:56.396Z,101430.82
2022-11-26T10:15:02.839Z,101429.81
2022-11-26T10:30:19.791Z,101441.73
2022-11-26T10:45:26.049Z,101459.03
2022-11-26T11:00:37.205Z,101457.55
2022-11-26T11:15:42.096Z,101466.31
2022-11-26T11:30:46.938Z,101471.14
2022-11-26T11:46:01.418Z,101469.81
2022-11-26T12:01:35.982Z,101470.64
2022-11-26T12:16:45.821Z,101488.23
2022-11-26T12:32:15.213Z,101500.43
2022-11-26T12:47:44.502Z,101501.42
2022-11-26T13:02:52.061Z,101493.09
2022-11-26T13:17:59.684Z,101497.67
2022-11-26T13:33:24.597Z,101503.33
2022-11-26T13:48:48.014Z,101510.80
2022-11-26T14:03:51.825Z,101519.20
2022-11-26T14:19:00.746Z,101530.85
2022-11-26T14:34:12.773Z,101531.81
2022-11-26T14:49:35.767Z,101547.74
2022-11-26T15:04:39.795Z,101563.40
2022-11-26T15:19:44.566Z,101564.39
2022-11-26T15:34:47.961Z,101570.08
2022-11-26T15:49:58.945Z,101576.20
2022-11-26T16:05:03.776Z,101584.19
2022-11-26T16:20:17.750Z,101578.32
2022-11-26T16:35:44.291Z,101584.78
2022-11-26T16:50:44.891Z,101599.25
2022-11-26T17:05:50.803Z,101611.90
2022-11-26T17:20:54.755Z,101611.16
2022-11-26T17:35:58.125Z,101615.08
2022-11-26T17:51:01.745Z,101623.02
2022-11-26T18:06:05.500Z,101629.83
2022-11-26T18:21:08.863Z,101632.73
2022-11-26T18:36:16.254Z,101634.31
2022-11-26T18:51:19.887Z,101638.63
2022-11-26T19:06:26.659Z,101654.88
2022-11-26T19:21:33.242Z,101658.30
2022-11-26T19:36:38.053Z,101651.70
2022-11-26T19:51:42.186Z,101655.14
2022-11-26T20:06:46.198Z,101656.50
2022-11-26T20:21:50.479Z,101664.91
2022-11-26T20:36:54.160Z,101667.02
2022-11-26T20:51:57.345Z,101667.25
2022-11-26T21:07:01.113Z,101679.50
2022-11-26T21:22:04.818Z,101688.45
2022-11-26T21:37:08.461Z,101680.27
2022-11-26T21:52:11.721Z,101679.14
2022-11-26T22:07:15.425Z,101682.00
2022-11-26T22:22:19.274Z,101689.19
2022-11-26T22:37:22.848Z,101679.98
2022-11-26T22:52:26.325Z,101676.66
2022-11-26T23:07:30.002Z,101683.23
2022-11-26T23:22:33.697Z,101685.01
2022-11-26T23:37:38.717Z,101674.36
2022-11-26T23:52:41.875Z,101672.98
